Time;durP1;ratioP1;P1;durP2;ratioP2;P2;SDS_P1;SDS_P2;PMS_P1;PMS_P2;Temp;Humidity;BMP_temperature;BMP_pressure;BME280_temperature;BME280_humidity;BME280_pressure;Samples;Min_cycle;Max_cycle;Signal;HPM_P1;HPM_P2
2024/01/21 00:01:47;;;;;;;18.80;8.68;;;-3.50;99.90;;;;;;5004700;28;20038;-68
2024/01/21 00:04:12;;;;;;;16.02;8.13;;;-3.50;99.90;;;;;;5016381;28;20052;-68
2024/01/21 00:06:38;;;;;;;15.93;9.20;;;-3.50;99.90;;;;;;5016446;28;20052;-67
2024/01/21 00:09:03;;;;;;;20.95;8.75;;;-3.50;99.90;;;;;;5018470;28;20029;-68
2024/01/21 00:11:29;;;;;;;14.77;7.55;;;-3.60;99.90;;;;;;5017568;28;20042;-67
2024/01/21 00:13:54;;;;;;;15.48;7.65;;;-3.60;99.90;;;;;;5012998;28;20131;-68
2024/01/21 00:16:20;;;;;;;15.07;7.75;;;-3.60;99.90;;;;;;5013677;28;20030;-68
2024/01/21 00:18:45;;;;;;;14.43;7.88;;;-3.60;99.90;;;;;;5015841;28;20088;-69
2024/01/21 00:21:11;;;;;;;13.32;6.75;;;-3.60;99.90;;;;;;5016880;28;20325;-68
2024/01/21 00:23:36;;;;;;;17.02;7.78;;;-3.60;99.90;;;;;;5015407;28;20026;-67
2024/01/21 00:26:02;;;;;;;13.98;7.45;;;-3.70;99.90;;;;;;5015204;28;20167;-68
2024/01/21 00:28:27;;;;;;;13.55;6.38;;;-3.70;99.90;;;;;;5015623;28;20490;-68
2024/01/21 00:30:53;;;;;;;15.98;7.32;;;-3.80;99.90;;;;;;5016297;28;20045;-68
2024/01/21 00:33:20;;;;;;;13.65;6.32;;;-3.80;99.90;;;;;;5014227;28;20104;-68
2024/01/21 00:35:46;;;;;;;16.02;6.40;;;-3.90;99.90;;;;;;5014290;28;20013;-68
2024/01/21 00:38:11;;;;;;;17.95;6.97;;;-3.90;99.90;;;;;;5014081;28;20466;-68
2024/01/21 00:40:37;;;;;;;13.05;6.15;;;-4.00;99.90;;;;;;5012107;28;20108;-68
2024/01/21 00:43:03;;;;;;;14.75;5.88;;;-4.00;99.90;;;;;;5015907;28;20053;-68
2024/01/21 00:45:28;;;;;;;13.98;6.43;;;-4.00;99.90;;;;;;5014122;28;20472;-68
2024/01/21 00:47:54;;;;;;;17.27;7.60;;;-4.10;99.90;;;;;;5019817;28;20087;-69
2024/01/21 00:50:20;;;;;;;16.83;7.75;;;-4.10;99.90;;;;;;5019930;28;20026;-68
2024/01/21 00:52:45;;;;;;;10.82;6.38;;;-4.00;99.90;;;;;;5020100;28;20495;-68
2024/01/21 00:55:11;;;;;;;10.93;5.80;;;-4.00;99.90;;;;;;5008714;28;20105;-68
2024/01/21 00:57:36;;;;;;;14.63;6.25;;;-4.10;99.90;;;;;;5011629;28;20080;-70
2024/01/21 01:00:03;;;;;;;14.85;6.95;;;-4.10;99.90;;;;;;5014292;28;20050;-68
2024/01/21 01:02:30;;;;;;;15.95;6.18;;;-4.10;99.90;;;;;;5012441;28;20580;-69
2024/01/21 01:04:55;;;;;;;15.27;6.53;;;-4.20;99.90;;;;;;5011440;28;20120;-68
2024/01/21 01:07:21;;;;;;;14.80;6.50;;;-4.20;99.90;;;;;;5022110;28;20411;-68
2024/01/21 01:09:47;;;;;;;14.57;7.82;;;-4.20;99.90;;;;;;5017182;28;20055;-68
2024/01/21 01:12:12;;;;;;;13.95;7.22;;;-4.10;99.90;;;;;;5022121;28;20055;-68
2024/01/21 01:14:40;;;;;;;23.90;10.35;;;-4.10;99.90;;;;;;5022139;28;20029;-68
2024/01/21 01:17:06;;;;;;;18.02;8.07;;;-4.10;99.90;;;;;;5024085;28;20496;-69
2024/01/21 01:19:32;;;;;;;14.43;7.38;;;-4.10;99.90;;;;;;5019505;28;20045;-68
2024/01/21 01:21:57;;;;;;;17.27;7.40;;;-4.10;99.90;;;;;;5021887;28;20056;-68
2024/01/21 01:24:23;;;;;;;14.63;6.90;;;-4.10;99.90;;;;;;5021985;28;20552;-69
2024/01/21 01:26:48;;;;;;;11.85;6.00;;;-4.20;99.90;;;;;;5022185;28;20037;-68
2024/01/21 01:29:14;;;;;;;11.52;6.07;;;-4.20;99.90;;;;;;5021840;28;20033;-69
2024/01/21 01:31:39;;;;;;;12.80;6.30;;;-4.20;99.90;;;;;;5021739;28;20037;-68
2024/01/21 01:34:05;;;;;;;10.98;5.90;;;-4.30;99.90;;;;;;5023050;28;20108;-68
2024/01/21 01:36:30;;;;;;;12.82;6.60;;;-4.20;99.90;;;;;;5016295;28;20032;-68
2024/01/21 01:38:56;;;;;;;13.60;6.22;;;-4.30;99.90;;;;;;5021949;28;20473;-69
2024/01/21 01:41:21;;;;;;;17.10;7.57;;;-4.30;99.90;;;;;;5013486;28;20482;-68
2024/01/21 01:43:47;;;;;;;15.07;5.78;;;-4.40;99.90;;;;;;5017544;28;20037;-68
2024/01/21 01:46:13;;;;;;;17.88;8.18;;;-4.40;99.90;;;;;;5017477;28;20030;-67
2024/01/21 01:48:39;;;;;;;13.90;7.13;;;-4.40;99.90;;;;;;5014272;28;20529;-68
2024/01/21 01:51:05;;;;;;;14.70;7.13;;;-4.30;99.90;;;;;;5014354;28;20101;-68
2024/01/21 01:53:33;;;;;;;12.65;6.22;;;-4.30;99.90;;;;;;5020649;28;20029;-68
2024/01/21 01:55:59;;;;;;;11.82;5.93;;;-4.20;99.90;;;;;;5012941;28;20021;-68
2024/01/21 01:58:27;;;;;;;13.52;6.00;;;-4.30;99.90;;;;;;5021089;28;20021;-67
2024/01/21 02:00:53;;;;;;;17.00;6.18;;;-4.20;99.90;;;;;;5019850;28;20405;-68
2024/01/21 02:03:18;;;;;;;16.67;7.13;;;-4.20;99.90;;;;;;5007589;28;20394;-68
2024/01/21 02:05:45;;;;;;;14.02;7.30;;;-4.20;99.90;;;;;;5022808;28;20031;-68
2024/01/21 02:08:10;;;;;;;10.48;6.35;;;-4.10;99.90;;;;;;5021158;28;20030;-68
2024/01/21 02:10:36;;;;;;;17.98;7.38;;;-4.10;99.90;;;;;;5021133;28;20040;-67
2024/01/21 02:13:01;;;;;;;10.55;5.68;;;-4.10;99.90;;;;;;5016867;28;20096;-69
2024/01/21 02:15:27;;;;;;;12.35;5.95;;;-4.10;99.90;;;;;;5021131;28;20032;-68
2024/01/21 02:17:52;;;;;;;13.05;6.53;;;-4.10;99.90;;;;;;5020953;28;20112;-69
2024/01/21 02:20:18;;;;;;;12.35;6.65;;;-4.00;99.90;;;;;;5022604;28;20079;-69
2024/01/21 02:22:43;;;;;;;15.50;7.50;;;-4.00;99.90;;;;;;5019507;28;20026;-68
2024/01/21 02:25:09;;;;;;;20.20;7.50;;;-4.00;99.90;;;;;;5021320;28;20033;-68
2024/01/21 02:27:37;;;;;;;13.45;7.32;;;-3.90;99.90;;;;;;5012660;28;20030;-68
2024/01/21 02:30:03;;;;;;;16.48;8.13;;;-3.90;99.90;;;;;;5014380;28;20029;-68
2024/01/21 02:32:29;;;;;;;11.80;6.03;;;-3.90;99.90;;;;;;5014067;28;20520;-68
2024/01/21 02:34:54;;;;;;;13.20;6.18;;;-3.80;99.90;;;;;;5016801;28;20116;-68
2024/01/21 02:37:20;;;;;;;13.73;6.45;;;-3.70;99.90;;;;;;5022580;28;20045;-68
2024/01/21 02:39:45;;;;;;;15.95;8.68;;;-3.70;99.90;;;;;;5020832;28;20501;-68
2024/01/21 02:42:11;;;;;;;16.05;7.82;;;-3.70;99.90;;;;;;5020871;28;20022;-68
2024/01/21 02:44:37;;;;;;;14.52;7.25;;;-3.70;99.90;;;;;;5020435;28;20086;-68
2024/01/21 02:47:02;;;;;;;15.70;8.05;;;-3.60;99.90;;;;;;5020497;28;20508;-68
2024/01/21 02:49:29;;;;;;;19.95;8.00;;;-3.60;99.90;;;;;;5020294;28;20036;-68
2024/01/21 02:51:55;;;;;;;21.52;8.75;;;-3.50;99.90;;;;;;5019111;28;20033;-68
2024/01/21 02:54:21;;;;;;;15.25;8.25;;;-3.50;99.80;;;;;;5022353;28;20382;-68
2024/01/21 02:56:47;;;;;;;14.52;7.22;;;-3.50;99.40;;;;;;5022285;28;20064;-68
2024/01/21 02:59:12;;;;;;;13.57;7.38;;;-3.50;99.50;;;;;;5020122;28;20052;-68
2024/01/21 03:01:38;;;;;;;12.23;6.60;;;-3.50;99.50;;;;;;5017058;28;20044;-68
2024/01/21 03:04:03;;;;;;;12.23;6.43;;;-3.50;99.20;;;;;;5012169;28;20502;-68
2024/01/21 03:06:29;;;;;;;14.80;7.90;;;-3.40;99.00;;;;;;5020334;28;20025;-68
2024/01/21 03:08:54;;;;;;;16.75;7.38;;;-3.40;98.90;;;;;;5019902;28;20041;-68
2024/01/21 03:11:20;;;;;;;14.07;7.70;;;-3.40;98.50;;;;;;5022059;28;20032;-68
2024/01/21 03:13:45;;;;;;;14.52;7.60;;;-3.50;98.10;;;;;;5020213;28;20032;-69
2024/01/21 03:16:11;;;;;;;14.55;6.53;;;-3.50;98.10;;;;;;5013671;28;20030;-69
2024/01/21 03:18:38;;;;;;;14.80;7.35;;;-3.50;97.90;;;;;;5014044;28;20128;-67
2024/01/21 03:21:06;;;;;;;15.73;7.72;;;-3.60;97.60;;;;;;5015929;28;20477;-68
2024/01/21 03:23:32;;;;;;;14.88;8.35;;;-3.60;97.30;;;;;;5011811;28;20088;-62
2024/01/21 03:25:57;;;;;;;12.85;7.03;;;-3.70;97.10;;;;;;5020196;28;20470;-66
2024/01/21 03:28:22;;;;;;;11.90;6.80;;;-3.70;96.30;;;;;;5021792;28;20203;-62
2024/01/21 03:30:48;;;;;;;15.23;7.10;;;-3.70;96.30;;;;;;5019934;28;20612;-62
2024/01/21 03:33:14;;;;;;;15.80;7.05;;;-3.80;96.50;;;;;;5019937;28;20034;-62
2024/01/21 03:35:40;;;;;;;15.25;8.07;;;-3.80;96.50;;;;;;5019755;28;20400;-62
2024/01/21 03:38:05;;;;;;;18.02;9.02;;;-3.80;96.30;;;;;;5019752;28;20120;-62
2024/01/21 03:40:31;;;;;;;17.33;8.43;;;-3.80;96.30;;;;;;5021594;28;20028;-63
2024/01/21 03:42:56;;;;;;;21.55;10.27;;;-3.90;95.70;;;;;;5019520;28;20029;-62
2024/01/21 03:45:22;;;;;;;16.10;8.45;;;-3.90;95.20;;;;;;5019588;28;20061;-62
2024/01/21 03:47:48;;;;;;;17.27;8.52;;;-3.90;95.20;;;;;;5019314;28;20486;-62
2024/01/21 03:50:18;;;;;;;16.75;8.23;;;-4.00;95.10;;;;;;5011269;28;20073;-62
2024/01/21 03:52:44;;;;;;;14.57;7.82;;;-4.00;95.00;;;;;;5019407;28;20037;-62
2024/01/21 03:55:10;;;;;;;16.02;8.05;;;-4.10;94.90;;;;;;5019296;28;20055;-62
2024/01/21 03:57:36;;;;;;;14.15;7.38;;;-4.10;95.00;;;;;;5021360;28;20029;-62
2024/01/21 04:00:02;;;;;;;19.65;9.02;;;-4.20;94.80;;;;;;5019425;28;20128;-62
2024/01/21 04:02:29;;;;;;;17.48;7.57;;;-4.20;94.90;;;;;;5013003;28;20033;-62
2024/01/21 04:04:55;;;;;;;14.38;7.30;;;-4.20;94.90;;;;;;5019309;28;20037;-63
2024/01/21 04:07:21;;;;;;;13.82;7.90;;;-4.20;94.90;;;;;;5019452;28;20034;-62
2024/01/21 04:09:46;;;;;;;14.48;7.97;;;-4.30;95.00;;;;;;5018825;28;20486;-62
2024/01/21 04:12:15;;;;;;;22.20;8.95;;;-4.30;95.00;;;;;;5020207;28;20018;-62
2024/01/21 04:14:40;;;;;;;16.05;7.95;;;-4.20;95.00;;;;;;5017652;28;20017;-62
2024/01/21 04:17:06;;;;;;;17.65;8.40;;;-4.30;95.10;;;;;;5019026;28;20033;-62
2024/01/21 04:19:31;;;;;;;15.93;8.20;;;-4.30;95.10;;;;;;5018837;28;20038;-62
2024/01/21 04:21:58;;;;;;;14.23;8.13;;;-4.20;95.10;;;;;;5019382;28;20455;-62
2024/01/21 04:24:24;;;;;;;14.40;7.88;;;-4.20;95.10;;;;;;5011072;28;20045;-62
2024/01/21 04:26:49;;;;;;;16.67;8.30;;;-4.20;95.00;;;;;;5019151;28;20030;-62
2024/01/21 04:29:15;;;;;;;14.13;7.72;;;-4.20;94.90;;;;;;5018805;28;20060;-62
2024/01/21 04:31:44;;;;;;;17.77;7.90;;;-4.20;94.80;;;;;;5012537;28;20120;-62
2024/01/21 04:34:09;;;;;;;13.90;6.72;;;-4.20;94.60;;;;;;5011099;28;20048;-62
2024/01/21 04:36:35;;;;;;;14.13;7.32;;;-4.20;94.30;;;;;;5019424;28;20402;-62
2024/01/21 04:39:01;;;;;;;15.43;6.82;;;-4.30;94.30;;;;;;5019153;28;20068;-62
2024/01/21 04:41:26;;;;;;;14.15;7.55;;;-4.30;94.30;;;;;;5019159;28;20068;-62
2024/01/21 04:43:51;;;;;;;14.98;7.50;;;-4.30;94.30;;;;;;5019089;28;20028;-62
2024/01/21 04:46:17;;;;;;;14.68;7.30;;;-4.20;94.10;;;;;;5019089;28;20394;-61
2024/01/21 04:48:42;;;;;;;14.73;7.10;;;-4.20;94.00;;;;;;5016757;28;20116;-62
2024/01/21 04:51:08;;;;;;;13.30;7.47;;;-4.20;93.70;;;;;;5019087;28;20033;-62
2024/01/21 04:53:34;;;;;;;13.80;7.50;;;-4.10;93.70;;;;;;5020098;28;20038;-62
2024/01/21 04:55:59;;;;;;;17.90;7.68;;;-4.00;93.70;;;;;;5022574;28;20124;-62
2024/01/21 04:58:25;;;;;;;9.65;6.03;;;-4.00;93.70;;;;;;5022796;28;20493;-62
2024/01/21 05:00:50;;;;;;;10.57;6.05;;;-3.90;93.60;;;;;;5022630;28;20102;-62
2024/01/21 05:03:16;;;;;;;12.93;6.50;;;-3.90;93.40;;;;;;5014528;28;20532;-62
2024/01/21 05:05:41;;;;;;;14.00;7.22;;;-3.80;93.30;;;;;;5021136;28;20033;-62
2024/01/21 05:08:07;;;;;;;14.32;6.85;;;-3.80;93.30;;;;;;5020958;28;20040;-62
2024/01/21 05:10:33;;;;;;;15.55;7.38;;;-3.70;93.10;;;;;;5022343;28;20041;-62
2024/01/21 05:12:59;;;;;;;11.18;6.22;;;-3.70;92.70;;;;;;5022232;28;20048;-62
2024/01/21 05:15:24;;;;;;;12.93;6.80;;;-3.60;92.90;;;;;;5024213;28;20067;-62
2024/01/21 05:17:50;;;;;;;12.85;6.55;;;-3.60;92.50;;;;;;5022252;28;20511;-62
2024/01/21 05:20:15;;;;;;;14.88;7.72;;;-3.60;92.20;;;;;;5022207;28;20102;-62
2024/01/21 05:22:41;;;;;;;13.05;6.05;;;-3.50;92.10;;;;;;5022262;28;20063;-62
2024/01/21 05:25:06;;;;;;;11.38;5.90;;;-3.50;91.90;;;;;;5022414;28;20379;-62
2024/01/21 05:27:32;;;;;;;10.73;5.97;;;-3.50;91.90;;;;;;5023691;28;20068;-63
2024/01/21 05:29:58;;;;;;;12.48;6.72;;;-3.40;92.20;;;;;;5019726;28;20038;-63
2024/01/21 05:32:23;;;;;;;12.73;5.82;;;-3.40;91.90;;;;;;5021996;28;20163;-62
2024/01/21 05:34:49;;;;;;;10.77;5.88;;;-3.40;91.90;;;;;;5021859;28;20033;-62
2024/01/21 05:37:14;;;;;;;12.18;6.93;;;-3.40;91.90;;;;;;5022269;28;20224;-62
2024/01/21 05:39:39;;;;;;;12.82;6.47;;;-3.40;92.00;;;;;;5016772;28;20079;-62
2024/01/21 05:42:07;;;;;;;9.00;5.50;;;-3.40;92.00;;;;;;5014840;28;20040;-62
2024/01/21 05:44:33;;;;;;;12.63;5.60;;;-3.40;91.90;;;;;;5019335;28;20029;-63
2024/01/21 05:46:59;;;;;;;11.65;6.10;;;-3.40;91.80;;;;;;5021634;28;20037;-62
2024/01/21 05:49:25;;;;;;;12.57;5.78;;;-3.40;91.70;;;;;;5021537;28;20041;-62
2024/01/21 05:51:51;;;;;;;14.35;7.05;;;-3.40;91.60;;;;;;5021516;28;20032;-62
2024/01/21 05:54:17;;;;;;;15.55;6.97;;;-3.30;91.90;;;;;;5021586;28;20030;-62
2024/01/21 05:56:43;;;;;;;13.50;6.28;;;-3.30;91.90;;;;;;5021475;28;20033;-62
2024/01/21 05:59:08;;;;;;;16.83;6.78;;;-3.30;92.00;;;;;;5012955;28;20057;-62
2024/01/21 06:01:34;;;;;;;11.30;5.07;;;-3.30;92.00;;;;;;5016724;28;20083;-62
2024/01/21 06:03:59;;;;;;;12.27;5.38;;;-3.30;91.90;;;;;;5016999;28;20083;-64
2024/01/21 06:06:25;;;;;;;9.75;5.07;;;-3.30;91.90;;;;;;5015759;28;20040;-62
2024/01/21 06:08:50;;;;;;;10.98;6.03;;;-3.30;91.90;;;;;;5016054;28;20386;-62
2024/01/21 06:11:16;;;;;;;10.70;6.28;;;-3.30;91.70;;;;;;5012669;28;20022;-62
2024/01/21 06:13:41;;;;;;;11.10;5.40;;;-3.20;91.80;;;;;;5014527;28;20445;-62
2024/01/21 06:16:07;;;;;;;11.68;5.30;;;-3.20;91.50;;;;;;5016556;28;20029;-63
2024/01/21 06:18:33;;;;;;;13.35;6.55;;;-3.10;91.30;;;;;;5013060;28;20511;-62
2024/01/21 06:20:59;;;;;;;11.27;6.05;;;-3.10;91.10;;;;;;5012054;28;20104;-62
2024/01/21 06:23:24;;;;;;;12.60;6.15;;;-3.10;90.90;;;;;;5013279;28;20340;-62
2024/01/21 06:25:50;;;;;;;9.98;5.65;;;-3.10;90.70;;;;;;5016670;28;20134;-62
2024/01/21 06:28:16;;;;;;;9.55;5.85;;;-3.20;90.50;;;;;;5019117;28;20029;-63
2024/01/21 06:30:42;;;;;;;9.68;5.63;;;-3.20;90.40;;;;;;5013566;28;20105;-63
2024/01/21 06:33:07;;;;;;;8.90;5.28;;;-3.20;90.40;;;;;;5016138;28;20457;-63
2024/01/21 06:35:33;;;;;;;13.80;5.78;;;-3.30;90.10;;;;;;5012290;28;20417;-63
2024/01/21 06:37:58;;;;;;;9.07;5.15;;;-3.30;90.10;;;;;;5013776;28;20033;-62
2024/01/21 06:40:24;;;;;;;10.52;5.43;;;-3.30;90.00;;;;;;5013767;28;20029;-62
2024/01/21 06:42:49;;;;;;;10.13;5.15;;;-3.30;90.20;;;;;;5012077;28;20468;-62
2024/01/21 06:45:15;;;;;;;11.60;5.95;;;-3.20;90.00;;;;;;5018404;28;20031;-63
2024/01/21 06:47:41;;;;;;;12.65;5.55;;;-3.30;90.00;;;;;;5017287;28;20091;-62
2024/01/21 06:50:09;;;;;;;10.60;5.93;;;-3.30;89.50;;;;;;5017889;28;20037;-62
2024/01/21 06:52:35;;;;;;;13.30;5.78;;;-3.30;89.60;;;;;;5017993;28;20033;-63
2024/01/21 06:55:00;;;;;;;8.55;5.40;;;-3.30;89.50;;;;;;5011944;28;20402;-63
2024/01/21 06:57:26;;;;;;;10.02;5.47;;;-3.20;89.60;;;;;;5019423;28;20057;-63
2024/01/21 06:59:51;;;;;;;6.50;4.65;;;-3.20;89.10;;;;;;5017197;28;20054;-62
2024/01/21 07:02:17;;;;;;;8.48;4.68;;;-3.20;89.80;;;;;;5010246;28;20458;-63
2024/01/21 07:04:42;;;;;;;9.93;5.60;;;-3.10;89.60;;;;;;5013571;28;20041;-62
2024/01/21 07:07:08;;;;;;;11.65;5.00;;;-3.10;89.30;;;;;;5010564;28;20417;-62
2024/01/21 07:09:34;;;;;;;10.27;4.80;;;-3.10;88.50;;;;;;5013050;28;20037;-63
2024/01/21 07:12:00;;;;;;;7.85;4.65;;;-3.00;88.40;;;;;;5012571;28;20045;-62
2024/01/21 07:14:26;;;;;;;9.85;5.30;;;-3.00;88.50;;;;;;5019121;28;20029;-62
2024/01/21 07:16:51;;;;;;;13.30;5.30;;;-2.90;88.30;;;;;;5013447;28;20029;-63
2024/01/21 07:19:16;;;;;;;14.00;5.72;;;-2.90;87.10;;;;;;5017240;28;20040;-62
2024/01/21 07:21:42;;;;;;;9.98;5.65;;;-2.80;87.00;;;;;;5017225;28;20030;-63
2024/01/21 07:24:07;;;;;;;10.30;6.45;;;-2.80;86.40;;;;;;5016988;28;20037;-62
2024/01/21 07:26:33;;;;;;;9.80;5.90;;;-2.70;85.90;;;;;;5008948;28;20406;-62
2024/01/21 07:28:58;;;;;;;9.00;5.88;;;-2.70;86.00;;;;;;5014634;28;20105;-63
2024/01/21 07:31:24;;;;;;;10.07;5.38;;;-2.60;85.60;;;;;;5009250;28;20057;-63
2024/01/21 07:33:50;;;;;;;10.65;5.15;;;-2.60;85.00;;;;;;5017644;28;20788;-63
2024/01/21 07:36:16;;;;;;;11.95;6.03;;;-2.50;83.40;;;;;;5016868;28;20037;-62
2024/01/21 07:38:41;;;;;;;10.73;5.47;;;-2.40;82.30;;;;;;5017533;28;20083;-62
2024/01/21 07:41:07;;;;;;;9.68;4.97;;;-2.30;81.70;;;;;;5016956;28;20378;-62
2024/01/21 07:43:32;;;;;;;7.65;4.72;;;-2.30;81.70;;;;;;5017125;28;20057;-63
2024/01/21 07:45:58;;;;;;;9.73;4.40;;;-2.20;81.60;;;;;;5017169;28;20018;-63
2024/01/21 07:48:23;;;;;;;9.63;4.97;;;-2.10;81.00;;;;;;5016749;28;20049;-63
2024/01/21 07:50:49;;;;;;;12.68;5.05;;;-2.00;80.30;;;;;;5017774;28;20551;-62
2024/01/21 07:53:17;;;;;;;9.07;5.20;;;-2.00;79.40;;;;;;5012814;28;20025;-62
2024/01/21 07:55:42;;;;;;;8.57;5.30;;;-1.90;78.70;;;;;;5013336;28;20033;-63
2024/01/21 07:58:08;;;;;;;13.38;5.53;;;-1.80;78.40;;;;;;5012311;28;20367;-63
2024/01/21 08:00:33;;;;;;;8.15;5.47;;;-1.80;77.60;;;;;;5016850;28;20073;-63
2024/01/21 08:02:59;;;;;;;8.13;4.53;;;-1.70;77.60;;;;;;5011510;28;20366;-63
2024/01/21 08:05:24;;;;;;;9.20;5.00;;;-1.70;77.00;;;;;;5017015;28;20040;-63
2024/01/21 08:07:49;;;;;;;8.50;5.00;;;-1.70;74.90;;;;;;5012982;28;20486;-63
2024/01/21 08:10:15;;;;;;;6.63;4.13;;;-1.60;71.90;;;;;;5018980;28;20029;-63
2024/01/21 08:12:40;;;;;;;10.68;4.28;;;-1.60;72.00;;;;;;5016643;28;20030;-63
2024/01/21 08:15:06;;;;;;;7.88;4.25;;;-1.50;71.00;;;;;;5017156;28;20033;-63
2024/01/21 08:17:31;;;;;;;7.60;3.92;;;-1.50;70.80;;;;;;5016930;28;20037;-63
2024/01/21 08:19:57;;;;;;;7.78;4.10;;;-1.40;70.40;;;;;;5017149;28;20029;-64
2024/01/21 08:22:23;;;;;;;7.13;3.63;;;-1.30;70.90;;;;;;5017287;28;20053;-63
2024/01/21 08:24:51;;;;;;;6.85;3.80;;;-1.20;69.90;;;;;;5018870;28;20087;-63
2024/01/21 08:27:17;;;;;;;8.00;4.28;;;-1.10;70.20;;;;;;5019006;28;20017;-64
2024/01/21 08:29:42;;;;;;;8.23;4.47;;;-1.00;68.90;;;;;;5014765;28;20076;-63
2024/01/21 08:32:08;;;;;;;7.80;4.70;;;-0.80;69.40;;;;;;5013954;28;20088;-63
2024/01/21 08:34:34;;;;;;;7.38;3.90;;;-0.60;68.90;;;;;;5014442;28;20385;-63
2024/01/21 08:36:59;;;;;;;6.15;3.53;;;-0.60;68.40;;;;;;5013912;28;20034;-63
2024/01/21 08:39:25;;;;;;;7.50;3.65;;;-0.40;66.40;;;;;;5016560;28;20037;-64
2024/01/21 08:41:50;;;;;;;7.25;3.63;;;-0.20;64.80;;;;;;5015257;28;20044;-63
2024/01/21 08:44:16;;;;;;;6.90;3.90;;;-0.10;64.40;;;;;;5017722;28;20580;-64
2024/01/21 08:46:44;;;;;;;6.30;3.33;;;0.00;63.60;;;;;;5012513;28;20034;-62
2024/01/21 08:49:09;;;;;;;6.80;3.40;;;0.10;62.90;;;;;;5015924;28;20041;-63
2024/01/21 08:51:35;;;;;;;6.68;3.63;;;0.20;63.80;;;;;;5019900;28;20038;-62
2024/01/21 08:54:00;;;;;;;5.63;3.33;;;0.20;61.10;;;;;;5014084;28;20068;-63
2024/01/21 08:56:26;;;;;;;5.45;3.60;;;0.30;62.40;;;;;;5011007;28;20057;-63
2024/01/21 08:58:53;;;;;;;6.05;3.00;;;0.40;62.50;;;;;;5013906;28;20560;-63
2024/01/21 09:01:19;;;;;;;8.25;3.67;;;0.50;61.50;;;;;;5016227;28;20048;-63
2024/01/21 09:03:44;;;;;;;5.55;3.25;;;0.60;56.70;;;;;;5016453;28;20033;-63
2024/01/21 09:06:11;;;;;;;6.57;2.90;;;0.60;55.20;;;;;;5014220;28;20101;-63
2024/01/21 09:08:36;;;;;;;4.65;2.92;;;0.60;56.10;;;;;;5021040;28;20128;-63
2024/01/21 09:11:02;;;;;;;5.93;2.90;;;0.60;54.50;;;;;;5012927;28;20785;-61
2024/01/21 09:13:28;;;;;;;5.72;3.13;;;0.50;53.70;;;;;;5013232;28;20033;-61
2024/01/21 09:15:53;;;;;;;6.43;3.50;;;0.50;52.00;;;;;;5013609;28;20033;-62
2024/01/21 09:18:19;;;;;;;10.20;3.17;;;0.50;52.60;;;;;;5013531;28;20025;-60
2024/01/21 09:20:44;;;;;;;5.13;2.83;;;0.50;52.70;;;;;;5010725;28;20026;-61
2024/01/21 09:23:10;;;;;;;6.00;2.65;;;0.50;51.80;;;;;;5012248;28;20105;-61
2024/01/21 09:25:35;;;;;;;5.18;2.45;;;0.60;51.70;;;;;;5018860;28;20132;-61
2024/01/21 09:28:01;;;;;;;5.57;2.72;;;0.70;49.60;;;;;;5016019;28;20036;-67
2024/01/21 09:30:27;;;;;;;3.25;2.13;;;0.70;48.50;;;;;;5015301;28;20021;-61
2024/01/21 09:32:52;;;;;;;3.28;1.98;;;0.80;48.00;;;;;;5015231;28;20395;-61
2024/01/21 09:35:18;;;;;;;4.82;2.35;;;0.80;46.10;;;;;;5018922;28;20056;-61
2024/01/21 09:37:43;;;;;;;6.07;2.50;;;0.80;45.70;;;;;;5017302;28;20393;-60
2024/01/21 09:40:09;;;;;;;4.47;2.10;;;0.90;44.80;;;;;;5011305;28;20033;-61
2024/01/21 09:42:35;;;;;;;4.28;2.13;;;0.90;46.10;;;;;;5017299;28;20490;-61
2024/01/21 09:45:01;;;;;;;5.43;2.33;;;1.00;45.20;;;;;;5014772;28;20026;-62
2024/01/21 09:47:27;;;;;;;3.13;2.05;;;1.00;44.40;;;;;;5015093;28;20053;-61
2024/01/21 09:49:55;;;;;;;6.13;2.42;;;1.00;45.50;;;;;;5010253;28;20064;-62
2024/01/21 09:52:22;;;;;;;2.90;2.28;;;1.10;46.10;;;;;;5013796;28;20075;-60
2024/01/21 09:54:50;;;;;;;4.85;2.17;;;1.20;44.20;;;;;;5010942;28;20420;-61
2024/01/21 09:57:15;;;;;;;2.83;1.80;;;1.20;46.40;;;;;;5014922;28;20076;-62
2024/01/21 09:59:41;;;;;;;5.32;1.95;;;1.20;46.00;;;;;;5016328;28;20120;-62
2024/01/21 10:02:16;;;;;;;4.15;2.55;;;1.30;42.00;;;;;;5006704;28;21208;-62
2024/01/21 10:04:44;;;;;;;3.17;1.88;;;1.40;42.50;;;;;;5015135;28;20046;-61
2024/01/21 10:07:13;;;;;;;5.85;2.55;;;1.30;42.70;;;;;;5016976;28;20065;-61
2024/01/21 10:09:39;;;;;;;4.90;2.42;;;1.30;39.90;;;;;;5011367;28;20038;-61
2024/01/21 10:12:06;;;;;;;2.72;2.10;;;1.30;39.20;;;;;;5019365;28;20021;-61
2024/01/21 10:14:32;;;;;;;3.08;1.77;;;1.30;39.50;;;;;;5014509;28;20026;-61
2024/01/21 10:16:59;;;;;;;3.20;2.08;;;1.30;40.50;;;;;;5015094;28;20155;-61
2024/01/21 10:19:31;;;;;;;4.05;2.20;;;1.40;40.70;;;;;;5005895;28;20033;-61
2024/01/21 10:22:16;;;;;;;5.28;2.38;;;1.50;41.10;;;;;;5018990;28;20115;-62
2024/01/21 10:24:43;;;;;;;6.47;2.55;;;1.50;39.00;;;;;;5010712;28;20032;-61
2024/01/21 10:27:10;;;;;;;4.47;2.47;;;1.50;37.80;;;;;;5015335;28;20018;-62
2024/01/21 10:29:45;;;;;;;4.07;2.30;;;1.50;38.00;;;;;;5018122;28;20025;-61
2024/01/21 10:32:12;;;;;;;4.38;2.65;;;1.50;38.70;;;;;;5017002;28;20381;-61
2024/01/21 10:34:44;;;;;;;5.78;3.13;;;1.60;37.40;;;;;;5015493;28;20544;-61
2024/01/21 10:37:13;;;;;;;8.05;3.00;;;1.60;37.30;;;;;;5014933;28;20017;-61
2024/01/21 10:39:43;;;;;;;4.47;2.63;;;1.60;38.00;;;;;;5016799;28;20029;-60
2024/01/21 10:42:09;;;;;;;6.38;2.53;;;1.60;39.30;;;;;;5019508;28;20025;-61
2024/01/21 10:44:35;;;;;;;3.97;2.15;;;1.60;38.50;;;;;;5016632;28;20058;-61
2024/01/21 10:47:03;;;;;;;3.95;2.20;;;1.60;37.40;;;;;;5018527;28;20028;-61
2024/01/21 10:49:31;;;;;;;3.63;2.17;;;1.70;36.40;;;;;;5013920;28;20044;-61
2024/01/21 10:51:57;;;;;;;3.25;2.20;;;1.70;37.50;;;;;;5015553;28;20140;-60
2024/01/21 10:54:25;;;;;;;3.83;2.42;;;1.70;37.80;;;;;;5012722;28;20180;-61
2024/01/21 10:56:50;;;;;;;3.60;1.77;;;1.80;37.60;;;;;;5012455;28;20026;-61
2024/01/21 10:59:16;;;;;;;4.97;2.67;;;1.90;37.30;;;;;;5019972;28;20035;-61
2024/01/21 11:01:43;;;;;;;3.10;2.20;;;1.90;35.20;;;;;;5010279;28;20390;-61
2024/01/21 11:04:14;;;;;;;3.22;1.90;;;1.90;36.90;;;;;;5018455;28;20017;-61
2024/01/21 11:06:44;;;;;;;7.60;2.80;;;1.90;37.80;;;;;;5013358;28;20045;-61
2024/01/21 11:09:10;;;;;;;6.60;2.67;;;1.90;37.20;;;;;;5015941;28;20072;-61
2024/01/21 11:11:49;;;;;;;6.05;2.80;;;1.90;35.30;;;;;;5022264;28;20037;-61
2024/01/21 11:14:43;;;;;;;6.78;2.80;;;1.90;35.80;;;;;;5018048;28;20058;-61
2024/01/21 11:17:10;;;;;;;4.03;2.20;;;1.90;34.70;;;;;;5011268;28;20053;-60
2024/01/21 11:19:53;;;;;;;3.70;2.22;;;1.90;35.60;;;;;;5018853;28;20021;-61
2024/01/21 11:22:23;;;;;;;4.90;2.63;;;1.90;35.60;;;;;;5016779;28;20025;-60
2024/01/21 11:24:51;;;;;;;18.65;9.32;;;1.90;36.80;;;;;;5009280;28;20061;-61
2024/01/21 11:27:33;;;;;;;6.32;2.80;;;1.90;37.60;;;;;;5009575;28;20025;-61
2024/01/21 11:30:00;;;;;;;5.20;2.88;;;1.90;36.90;;;;;;5010166;28;20446;-61
2024/01/21 11:32:28;;;;;;;14.35;5.88;;;1.90;36.10;;;;;;5010351;28;20134;-61
2024/01/21 11:35:27;;;;;;;40.75;16.63;;;2.00;35.60;;;;;;5020071;28;20113;-61
2024/01/21 11:37:53;;;;;;;87.30;36.83;;;2.00;36.20;;;;;;4989060;28;20037;-60
2024/01/21 11:40:19;;;;;;;36.90;16.90;;;2.10;36.60;;;;;;5010515;28;20037;-60
2024/01/21 11:42:49;;;;;;;102.25;37.53;;;2.10;36.80;;;;;;5011045;28;20021;-61
2024/01/21 11:45:16;;;;;;;33.72;14.00;;;2.10;37.50;;;;;;5013051;28;20109;-60
2024/01/21 11:47:41;;;;;;;35.22;16.23;;;2.10;37.20;;;;;;5003855;28;20026;-60
2024/01/21 11:50:07;;;;;;;50.08;22.30;;;2.20;35.30;;;;;;5014897;28;20021;-61
2024/01/21 11:52:35;;;;;;;40.80;17.73;;;2.20;36.00;;;;;;5016645;28;20120;-62
2024/01/21 11:55:00;;;;;;;17.63;7.65;;;2.30;35.90;;;;;;5017955;28;20694;-61
2024/01/21 11:57:27;;;;;;;34.35;15.35;;;2.30;33.30;;;;;;5018391;28;20030;-61
2024/01/21 11:59:54;;;;;;;17.05;7.55;;;2.30;34.40;;;;;;5017152;28;20124;-61
2024/01/21 12:02:19;;;;;;;16.88;8.30;;;2.30;34.30;;;;;;5010928;28;20029;-61
2024/01/21 12:04:46;;;;;;;110.32;44.42;;;2.40;35.50;;;;;;5023272;28;20026;-62
2024/01/21 12:07:12;;;;;;;22.05;10.93;;;2.40;36.20;;;;;;5022687;28;20385;-62
2024/01/21 12:09:38;;;;;;;45.78;20.58;;;2.50;36.90;;;;;;5018609;28;20042;-61
2024/01/21 12:12:07;;;;;;;8.85;4.03;;;2.50;36.20;;;;;;5018488;28;20732;-62
2024/01/21 12:14:33;;;;;;;5.40;3.33;;;2.60;33.20;;;;;;5016445;28;20037;-61
2024/01/21 12:17:01;;;;;;;10.05;4.00;;;2.60;33.60;;;;;;5012944;28;20132;-61
2024/01/21 12:19:27;;;;;;;5.38;3.03;;;2.60;34.10;;;;;;5016340;28;20034;-61
2024/01/21 12:21:54;;;;;;;11.63;4.43;;;2.60;34.20;;;;;;5013402;28;20017;-61
2024/01/21 12:24:23;;;;;;;4.95;3.20;;;2.70;33.30;;;;;;5017719;28;20049;-61
2024/01/21 12:26:48;;;;;;;7.78;4.43;;;2.70;33.40;;;;;;5018866;28;20079;-61
2024/01/21 12:29:14;;;;;;;6.22;3.55;;;2.70;32.50;;;;;;5015960;28;20033;-62
2024/01/21 12:31:40;;;;;;;7.88;4.38;;;2.70;32.60;;;;;;5013668;28;20045;-61
2024/01/21 12:34:08;;;;;;;6.10;3.40;;;2.80;33.20;;;;;;5014503;28;20131;-61
2024/01/21 12:36:34;;;;;;;58.22;27.60;;;2.70;33.50;;;;;;5014477;28;20096;-61
2024/01/21 12:39:00;;;;;;;41.25;20.60;;;2.70;32.10;;;;;;5012808;28;20034;-61